Terminal Aerodrome Forecast
Issued by NWS

Home | Current Version | Previous Version | Text Only | Print | Product List | Glossary On
Versions: 1 2 3 4 5 6 7 8 9 10 11 12 13 14 15 16 17 18 19 20 21
000
FTUS46 KMFR 242325
TAFOTH
TAF
KOTH 242325Z 2500/2524 35018G30KT P6SM SCT035
     FM250300 36010KT P6SM BKN035
     FM250700 VRB03KT P6SM SCT012 OVC025
     FM251700 33010KT P6SM SCT015 OVC035
     FM251900 35014G25KT P6SM SCT035 SCT250=

USA.gov is the U.S. government's official web portal to all federal, state and local government web resources and services.